createdAt,value
2022-09-26T00:01:18.935Z,21.48
2022-09-26T00:03:51.573Z,21.70
2022-09-26T00:06:20.315Z,22.58
2022-09-26T00:08:49.484Z,26.80
2022-09-26T00:11:20.683Z,23.25
2022-09-26T00:13:53.038Z,25.33
2022-09-26T00:16:20.890Z,25.17
2022-09-26T00:18:49.990Z,23.38
2022-09-26T00:21:18.322Z,25.92
2022-09-26T00:23:46.363Z,21.65
2022-09-26T00:26:18.151Z,24.65
2022-09-26T00:28:46.386Z,22.10
2022-09-26T00:31:18.517Z,23.05
2022-09-26T00:33:47.035Z,24.88
2022-09-26T00:36:14.706Z,26.55
2022-09-26T00:38:42.230Z,26.23
2022-09-26T00:41:09.970Z,25.30
2022-09-26T00:43:43.650Z,23.55
2022-09-26T00:46:24.043Z,24.20
2022-09-26T00:49:02.997Z,23.35
2022-09-26T00:51:31.848Z,24.00
2022-09-26T00:53:59.404Z,25.92
2022-09-26T00:56:34.122Z,27.15
2022-09-26T00:59:15.717Z,25.58
2022-09-26T01:01:43.349Z,25.15
2022-09-26T01:04:12.663Z,27.75
2022-09-26T01:06:41.518Z,25.05
2022-09-26T01:09:09.317Z,23.08
2022-09-26T01:11:37.990Z,23.42
2022-09-26T01:14:08.727Z,19.83
2022-09-26T01:16:39.311Z,20.63
2022-09-26T01:19:18.235Z,20.23
2022-09-26T01:22:28.259Z,19.10
2022-09-26T01:25:15.325Z,20.58
2022-09-26T01:28:00.440Z,19.60
2022-09-26T01:30:39.870Z,19.67
2022-09-26T01:33:33.302Z,20.40
2022-09-26T01:36:38.425Z,22.13
2022-09-26T01:39:18.113Z,20.83
2022-09-26T01:42:07.320Z,21.80
2022-09-26T01:44:41.860Z,21.75
2022-09-26T01:47:22.115Z,23.15
2022-09-26T01:49:54.091Z,22.27
2022-09-26T01:52:45.231Z,24.08
2022-09-26T01:55:18.051Z,21.50
2022-09-26T01:58:05.587Z,20.83
2022-09-26T02:00:37.654Z,19.95
2022-09-26T02:03:10.955Z,19.42
2022-09-26T02:05:54.219Z,22.33
2022-09-26T02:08:54.149Z,20.38
2022-09-26T02:11:24.702Z,19.42
2022-09-26T02:14:08.249Z,21.45
2022-09-26T02:16:46.657Z,21.58
2022-09-26T02:19:24.165Z,20.90
2022-09-26T02:21:51.990Z,20.95
2022-09-26T02:24:19.737Z,21.90
2022-09-26T02:26:47.262Z,22.33
2022-09-26T02:29:14.902Z,20.83
2022-09-26T02:31:50.541Z,23.52
2022-09-26T02:34:18.994Z,21.67
2022-09-26T02:36:46.432Z,19.92
2022-09-26T02:39:13.936Z,21.90
2022-09-26T02:42:21.688Z,19.50
2022-09-26T02:45:08.029Z,21.65
2022-09-26T02:48:02.478Z,23.27
2022-09-26T02:50:48.676Z,20.50
2022-09-26T02:53:41.499Z,21.58
2022-09-26T02:56:30.088Z,20.80
2022-09-26T02:59:03.450Z,22.63
2022-09-26T03:01:48.403Z,23.73
2022-09-26T03:04:41.470Z,23.42
2022-09-26T03:07:13.846Z,25.13
2022-09-26T03:09:42.374Z,23.20
2022-09-26T03:12:10.503Z,24.30
2022-09-26T03:14:42.240Z,22.90
2022-09-26T03:17:10.152Z,28.55
2022-09-26T03:19:45.408Z,25.55
2022-09-26T03:22:15.990Z,25.35
2022-09-26T03:24:44.269Z,26.13
2022-09-26T03:27:14.419Z,29.35
2022-09-26T03:29:42.025Z,29.13
2022-09-26T03:32:15.310Z,28.48
2022-09-26T03:34:43.249Z,27.13
2022-09-26T03:37:11.378Z,23.58
2022-09-26T03:39:38.771Z,23.88
2022-09-26T03:42:11.848Z,26.50
2022-09-26T03:44:39.653Z,24.40
2022-09-26T03:47:14.606Z,28.63
2022-09-26T03:49:44.649Z,26.88
2022-09-26T03:52:15.815Z,27.02
2022-09-26T03:54:44.879Z,24.48
2022-09-26T03:57:13.187Z,30.30
2022-09-26T03:59:46.990Z,30.45
2022-09-26T04:02:14.700Z,30.83
2022-09-26T04:04:45.645Z,33.13
2022-09-26T04:07:16.050Z,33.85
2022-09-26T04:09:43.310Z,32.45
2022-09-26T04:12:11.553Z,33.75
2022-09-26T04:14:43.470Z,35.00
2022-09-26T04:17:11.652Z,31.23
2022-09-26T04:22:10.271Z,31.70
2022-09-26T04:24:38.524Z,32.35
2022-09-26T04:27:08.523Z,34.30
2022-09-26T04:29:36.159Z,32.60
2022-09-26T04:32:17.557Z,33.80
2022-09-26T04:35:05.169Z,34.88
2022-09-26T04:37:36.974Z,35.20
2022-09-26T04:40:04.701Z,33.13
2022-09-26T04:42:36.953Z,32.88
2022-09-26T04:45:05.463Z,33.47
2022-09-26T04:47:33.285Z,31.80
2022-09-26T04:50:29.533Z,34.63
2022-09-26T04:53:08.145Z,34.80
2022-09-26T04:56:15.645Z,32.42
2022-09-26T04:58:44.922Z,33.45
2022-09-26T05:01:18.316Z,31.92
2022-09-26T05:03:58.355Z,31.75
2022-09-26T05:06:27.712Z,35.28
2022-09-26T05:08:55.210Z,34.17
2022-09-26T05:11:43.910Z,31.27
2022-09-26T05:14:13.384Z,33.83
2022-09-26T05:16:40.875Z,32.53
2022-09-26T05:19:12.332Z,33.03
2022-09-26T05:21:48.203Z,31.25
2022-09-26T05:24:34.232Z,32.45
2022-09-26T05:27:06.223Z,28.77
2022-09-26T05:32:04.584Z,31.13
2022-09-26T05:37:04.612Z,32.53
2022-09-26T05:39:51.605Z,33.53
2022-09-26T05:42:19.970Z,32.60
2022-09-26T05:44:47.245Z,31.02
2022-09-26T05:47:15.711Z,33.67
2022-09-26T05:49:42.979Z,35.25
2022-09-26T05:52:14.760Z,33.65
2022-09-26T05:54:41.978Z,28.95
2022-09-26T05:57:29.293Z,30.40
2022-09-26T05:59:56.991Z,31.45
2022-09-26T06:02:24.328Z,33.83
2022-09-26T06:05:14.368Z,27.67
2022-09-26T06:08:04.294Z,30.83
2022-09-26T06:10:51.795Z,26.00
2022-09-26T06:13:21.337Z,26.50
2022-09-26T06:15:50.014Z,26.05
2022-09-26T06:18:17.573Z,24.05
2022-09-26T06:20:44.829Z,25.63
2022-09-26T06:23:13.676Z,26.63
2022-09-26T06:25:42.654Z,25.77
2022-09-26T06:28:09.951Z,25.60
2022-09-26T06:30:37.454Z,25.23
2022-09-26T06:33:32.582Z,26.08
2022-09-26T06:36:24.493Z,23.55
2022-09-26T06:38:53.982Z,24.58
2022-09-26T06:41:22.037Z,24.65
2022-09-26T06:43:49.956Z,27.17
2022-09-26T06:46:47.101Z,23.95
2022-09-26T06:49:17.963Z,26.65
2022-09-26T06:51:48.992Z,23.27
2022-09-26T06:54:17.715Z,23.10
2022-09-26T06:56:45.726Z,25.75
2022-09-26T06:59:13.054Z,23.98
2022-09-26T07:01:49.728Z,26.67
2022-09-26T07:04:35.946Z,28.13
2022-09-26T07:07:30.151Z,29.63
2022-09-26T07:09:58.005Z,29.20
2022-09-26T07:12:47.230Z,28.70
2022-09-26T07:15:19.432Z,30.42
2022-09-26T07:17:50.955Z,32.60
2022-09-26T07:23:28.201Z,35.17
2022-09-26T07:25:55.903Z,35.38
2022-09-26T07:28:23.214Z,35.00
2022-09-26T07:30:50.938Z,33.95
2022-09-26T07:33:47.382Z,32.58
2022-09-26T07:36:15.943Z,36.22
2022-09-26T07:38:48.475Z,33.15
2022-09-26T07:41:17.600Z,34.55
2022-09-26T07:46:50.763Z,34.53
2022-09-26T07:49:36.878Z,33.22
2022-09-26T07:52:09.980Z,34.30
2022-09-26T07:54:47.538Z,32.88
2022-09-26T07:57:35.344Z,34.38
2022-09-26T08:00:24.052Z,32.03
2022-09-26T08:03:06.078Z,27.25
2022-09-26T08:05:37.216Z,28.88
2022-09-26T08:08:04.952Z,28.73
2022-09-26T08:10:50.978Z,25.63
2022-09-26T08:13:37.299Z,23.95
2022-09-26T08:16:23.535Z,24.52
2022-09-26T08:18:54.957Z,23.95
2022-09-26T08:21:26.993Z,21.75
2022-09-26T08:23:57.354Z,20.75
2022-09-26T08:26:47.116Z,17.63
2022-09-26T08:29:20.575Z,22.90
2022-09-26T08:31:51.362Z,18.70
2022-09-26T08:34:25.379Z,18.55
2022-09-26T08:37:29.496Z,19.88
2022-09-26T08:40:15.258Z,17.52
2022-09-26T08:43:30.414Z,18.48
2022-09-26T08:46:40.120Z,15.07
2022-09-26T08:49:42.587Z,16.05
2022-09-26T08:52:30.823Z,16.98
2022-09-26T08:55:01.536Z,16.73
2022-09-26T08:57:43.631Z,15.45
2022-09-26T09:00:24.848Z,13.68
2022-09-26T09:03:15.811Z,15.77
2022-09-26T09:05:59.022Z,15.80
2022-09-26T09:08:39.701Z,14.48
2022-09-26T09:12:15.036Z,14.07
2022-09-26T09:15:26.104Z,14.40
2022-09-26T09:18:20.733Z,15.25
2022-09-26T09:21:47.987Z,14.60
2022-09-26T09:24:29.627Z,15.07
2022-09-26T09:30:29.720Z,12.02
2022-09-26T09:33:09.991Z,12.48
2022-09-26T09:35:56.780Z,13.70
2022-09-26T09:38:39.028Z,13.40
2022-09-26T09:41:24.888Z,12.23
2022-09-26T09:43:56.205Z,14.82
2022-09-26T09:46:29.213Z,12.10
2022-09-26T09:49:12.149Z,12.70
2022-09-26T09:51:52.610Z,12.00
2022-09-26T09:54:39.105Z,11.85
2022-09-26T09:57:25.770Z,13.30
2022-09-26T10:00:10.058Z,14.30
2022-09-26T10:03:05.074Z,12.70
2022-09-26T10:05:47.118Z,10.07
2022-09-26T10:08:33.372Z,10.13
2022-09-26T10:11:28.231Z,9.40
2022-09-26T10:14:04.648Z,11.82
2022-09-26T10:17:08.799Z,10.50
2022-09-26T10:19:44.156Z,11.25
2022-09-26T10:22:44.948Z,9.50
2022-09-26T10:25:25.919Z,9.35
2022-09-26T10:27:59.178Z,11.75
2022-09-26T10:30:33.099Z,9.88
2022-09-26T10:33:05.650Z,10.75
2022-09-26T10:35:48.193Z,11.38
2022-09-26T10:38:27.401Z,8.93
2022-09-26T10:41:06.496Z,9.27
2022-09-26T10:43:40.109Z,8.93
2022-09-26T10:46:27.200Z,8.73
2022-09-26T10:49:23.583Z,10.55
2022-09-26T10:52:02.315Z,7.82
2022-09-26T10:54:41.208Z,12.07
2022-09-26T10:57:19.843Z,7.80
2022-09-26T10:59:49.351Z,7.38
2022-09-26T11:02:21.972Z,8.75
2022-09-26T11:05:23.222Z,7.60
2022-09-26T11:07:56.726Z,8.25
2022-09-26T11:10:48.896Z,6.45
2022-09-26T11:13:23.965Z,7.95
2022-09-26T11:16:08.853Z,7.20
2022-09-26T11:18:46.028Z,9.43
2022-09-26T11:21:38.631Z,11.05
2022-09-26T11:24:15.834Z,9.35
2022-09-26T11:27:25.657Z,9.07
2022-09-26T11:29:56.055Z,8.95
2022-09-26T11:32:33.540Z,9.05
2022-09-26T11:35:45.784Z,10.40
2022-09-26T11:38:39.865Z,9.18
2022-09-26T11:41:38.497Z,10.43
2022-09-26T11:44:44.368Z,7.97
2022-09-26T11:47:52.932Z,8.43
2022-09-26T11:50:40.084Z,8.80
2022-09-26T11:53:42.387Z,9.10
2022-09-26T11:56:15.886Z,7.97
2022-09-26T11:59:04.749Z,7.90
2022-09-26T12:02:01.246Z,8.82
2022-09-26T12:05:05.769Z,9.35
2022-09-26T12:08:04.604Z,11.90
2022-09-26T12:10:47.123Z,10.18
2022-09-26T12:13:17.396Z,9.35
2022-09-26T12:16:09.949Z,9.13
2022-09-26T12:18:43.567Z,10.98
2022-09-26T12:22:05.914Z,12.25
2022-09-26T12:24:57.578Z,10.02
2022-09-26T12:27:50.490Z,9.27
2022-09-26T12:30:24.881Z,12.52
2022-09-26T12:33:30.549Z,9.82
2022-09-26T12:36:21.455Z,12.85
2022-09-26T12:39:07.169Z,10.57
2022-09-26T12:42:16.509Z,11.68
2022-09-26T12:44:52.371Z,10.75
2022-09-26T12:48:01.561Z,10.98
2022-09-26T12:50:58.420Z,10.43
2022-09-26T12:53:37.626Z,9.70
2022-09-26T12:56:09.294Z,12.50
2022-09-26T12:58:57.808Z,9.30
2022-09-26T13:01:48.839Z,11.27
2022-09-26T13:04:32.030Z,11.85
2022-09-26T13:07:20.939Z,9.98
2022-09-26T13:09:51.616Z,9.52
2022-09-26T13:12:49.100Z,10.65
2022-09-26T13:15:46.451Z,18.08
2022-09-26T13:18:38.061Z,10.40
2022-09-26T13:21:13.967Z,16.85
2022-09-26T13:23:49.763Z,11.63
2022-09-26T13:26:26.596Z,11.20
2022-09-26T13:29:17.503Z,12.77
2022-09-26T13:32:05.776Z,12.57
2022-09-26T13:34:40.593Z,11.77
2022-09-26T13:37:22.666Z,11.48
2022-09-26T13:39:59.097Z,10.70
2022-09-26T13:42:42.858Z,8.60
2022-09-26T13:45:30.188Z,8.23
2022-09-26T13:48:08.029Z,9.45
2022-09-26T13:50:50.714Z,12.23
2022-09-26T13:53:44.791Z,11.50
2022-09-26T13:56:46.887Z,11.55
2022-09-26T13:59:14.687Z,10.57
2022-09-26T14:02:19.835Z,14.52
2022-09-26T14:04:50.903Z,11.38
2022-09-26T14:08:08.912Z,11.00
2022-09-26T14:10:39.770Z,9.13
2022-09-26T14:13:10.029Z,7.85
2022-09-26T14:15:49.441Z,10.00
2022-09-26T14:18:44.867Z,8.55
2022-09-26T14:21:35.806Z,6.28
2022-09-26T14:24:24.061Z,6.38
2022-09-26T14:27:03.562Z,6.38
2022-09-26T14:29:43.983Z,5.20
2022-09-26T14:32:36.223Z,4.80
2022-09-26T14:38:01.277Z,3.97
2022-09-26T14:40:30.848Z,5.72
2022-09-26T14:43:05.987Z,5.68
2022-09-26T14:45:44.399Z,5.18
2022-09-26T14:48:11.807Z,4.45
2022-09-26T14:50:50.225Z,4.85
2022-09-26T14:53:25.141Z,4.85
2022-09-26T14:56:06.199Z,3.33
2022-09-26T14:58:47.873Z,4.03
2022-09-26T15:01:25.434Z,5.70
2022-09-26T15:04:10.574Z,4.53
2022-09-26T15:06:51.808Z,3.78
2022-09-26T15:09:25.495Z,9.87
2022-09-26T15:12:08.352Z,5.10
2022-09-26T15:14:49.959Z,4.28
2022-09-26T15:17:27.583Z,5.82
2022-09-26T15:19:57.314Z,4.80
2022-09-26T15:22:27.060Z,10.60
2022-09-26T15:25:06.555Z,4.85
2022-09-26T15:27:36.085Z,6.50
2022-09-26T15:30:18.257Z,7.03
2022-09-26T15:35:17.114Z,4.65
2022-09-26T15:37:45.777Z,9.77
2022-09-26T15:40:15.751Z,5.55
2022-09-26T15:42:58.340Z,8.32
2022-09-26T15:45:35.583Z,6.45
2022-09-26T15:48:20.740Z,6.68
2022-09-26T15:50:51.801Z,6.60
2022-09-26T15:53:33.670Z,6.10
2022-09-26T15:56:09.696Z,5.88
2022-09-26T15:59:01.008Z,6.15
2022-09-26T16:01:30.810Z,5.55
2022-09-26T16:04:03.197Z,7.38
2022-09-26T16:06:36.607Z,5.47
2022-09-26T16:09:06.939Z,7.03
2022-09-26T16:11:50.112Z,4.97
2022-09-26T16:14:41.437Z,5.50
2022-09-26T16:17:37.452Z,9.95
2022-09-26T16:20:13.931Z,6.65
2022-09-26T16:22:51.185Z,7.32
2022-09-26T16:25:18.812Z,6.30
2022-09-26T16:27:52.378Z,6.00
2022-09-26T16:30:25.753Z,7.95
2022-09-26T16:32:54.461Z,8.85
2022-09-26T16:35:30.021Z,6.97
2022-09-26T16:38:05.386Z,6.57
2022-09-26T16:40:34.849Z,4.78
2022-09-26T16:43:12.578Z,6.60
2022-09-26T16:46:01.637Z,6.82
2022-09-26T16:48:42.341Z,6.05
2022-09-26T16:51:22.043Z,5.00
2022-09-26T16:53:53.428Z,6.85
2022-09-26T16:56:23.542Z,5.50
2022-09-26T16:58:55.600Z,8.27
2022-09-26T17:04:21.497Z,6.30
2022-09-26T17:06:48.855Z,5.50
2022-09-26T17:09:28.124Z,10.15
2022-09-26T17:12:14.078Z,5.55
2022-09-26T17:14:42.610Z,4.80
2022-09-26T17:17:25.784Z,5.03
2022-09-26T17:19:59.578Z,6.85
2022-09-26T17:22:28.378Z,7.07
2022-09-26T17:24:55.749Z,7.97
2022-09-26T17:27:30.556Z,7.85
2022-09-26T17:30:03.488Z,8.70
2022-09-26T17:32:37.432Z,6.10
2022-09-26T17:35:14.290Z,7.75
2022-09-26T17:37:41.898Z,7.20
2022-09-26T17:40:17.337Z,7.50
2022-09-26T17:42:45.618Z,6.57
2022-09-26T17:45:13.248Z,7.70
2022-09-26T17:47:40.811Z,8.38
2022-09-26T17:50:17.298Z,8.77
2022-09-26T17:52:45.207Z,9.52
2022-09-26T17:55:13.000Z,8.77
2022-09-26T17:57:41.883Z,10.38
2022-09-26T18:00:15.811Z,12.73
2022-09-26T18:02:46.386Z,9.80
2022-09-26T18:05:30.764Z,7.72
2022-09-26T18:08:19.736Z,10.05
2022-09-26T18:10:54.996Z,9.15
2022-09-26T18:13:26.185Z,8.07
2022-09-26T18:15:56.111Z,10.77
2022-09-26T18:18:25.337Z,10.13
2022-09-26T18:20:54.747Z,12.02
2022-09-26T18:23:25.976Z,10.60
2022-09-26T18:25:56.549Z,10.02
2022-09-26T18:28:23.947Z,9.48
2022-09-26T18:30:58.092Z,11.13
2022-09-26T18:33:28.805Z,9.23
2022-09-26T18:35:57.858Z,11.20
2022-09-26T18:38:25.388Z,8.43
2022-09-26T18:41:00.153Z,12.35
2022-09-26T18:43:39.060Z,11.82
2022-09-26T18:46:17.763Z,12.23
2022-09-26T18:48:46.361Z,11.13
2022-09-26T18:51:14.307Z,11.38
2022-09-26T18:53:42.048Z,11.15
2022-09-26T18:56:30.926Z,8.90
2022-09-26T18:58:58.347Z,9.07
2022-09-26T19:01:33.076Z,8.55
2022-09-26T19:04:02.903Z,7.75
2022-09-26T19:06:40.660Z,9.63
2022-09-26T19:09:13.692Z,7.75
2022-09-26T19:11:41.937Z,7.20
2022-09-26T19:14:24.598Z,7.10
2022-09-26T19:16:52.739Z,7.38
2022-09-26T19:19:20.854Z,7.65
2022-09-26T19:21:51.214Z,6.80
2022-09-26T19:24:54.312Z,8.88
2022-09-26T19:27:24.933Z,6.90
2022-09-26T19:30:02.813Z,6.72
2022-09-26T19:32:41.882Z,9.30
2022-09-26T19:35:27.085Z,6.38
2022-09-26T19:37:54.579Z,7.22
2022-09-26T19:40:24.690Z,8.60
2022-09-26T19:42:52.635Z,6.82
2022-09-26T19:45:20.851Z,6.32
2022-09-26T19:47:51.899Z,6.57
2022-09-26T19:50:25.768Z,7.33
2022-09-26T19:52:55.171Z,8.20
2022-09-26T19:55:24.813Z,8.15
2022-09-26T19:58:10.678Z,7.10
2022-09-26T20:00:41.511Z,8.23
2022-09-26T20:03:21.304Z,7.80
2022-09-26T20:05:50.169Z,9.13
2022-09-26T20:08:22.854Z,6.85
2022-09-26T20:10:50.858Z,8.15
2022-09-26T20:13:21.961Z,7.95
2022-09-26T20:15:49.994Z,7.97
2022-09-26T20:18:23.997Z,7.90
2022-09-26T20:20:54.551Z,11.23
2022-09-26T20:23:25.461Z,10.38
2022-09-26T20:25:54.444Z,9.25
2022-09-26T20:28:22.734Z,8.15
2022-09-26T20:30:54.158Z,8.13
2022-09-26T20:33:22.902Z,8.82
2022-09-26T20:36:01.681Z,8.32
2022-09-26T20:38:40.289Z,9.82
2022-09-26T20:41:13.481Z,9.75
2022-09-26T20:43:44.311Z,10.07
2022-09-26T20:46:12.545Z,10.75
2022-09-26T20:48:42.930Z,11.27
2022-09-26T20:51:31.158Z,10.38
2022-09-26T20:54:02.726Z,7.97
2022-09-26T20:56:30.236Z,11.48
2022-09-26T20:58:59.913Z,10.55
2022-09-26T21:01:28.809Z,10.88
2022-09-26T21:03:56.218Z,11.45
2022-09-26T21:06:28.207Z,14.75
2022-09-26T21:11:22.922Z,11.95
2022-09-26T21:13:50.469Z,13.57
2022-09-26T21:16:20.118Z,12.68
2022-09-26T21:18:52.517Z,15.35
2022-09-26T21:21:25.756Z,16.13
2022-09-26T21:24:06.962Z,15.75
2022-09-26T21:26:34.545Z,14.93
2022-09-26T21:29:01.993Z,8.10
2022-09-26T21:31:34.329Z,7.60
2022-09-26T21:34:03.334Z,5.88
2022-09-26T21:36:35.505Z,7.50
2022-09-26T21:39:03.477Z,4.22
2022-09-26T21:41:31.075Z,4.63
2022-09-26T21:44:08.532Z,2.85
2022-09-26T21:46:36.037Z,2.95
2022-09-26T21:49:03.484Z,3.05
2022-09-26T21:51:31.571Z,2.05
2022-09-26T21:54:23.317Z,2.50
2022-09-26T21:57:16.889Z,3.30
2022-09-26T21:59:45.077Z,4.30
2022-09-26T22:02:12.506Z,3.85
2022-09-26T22:04:40.320Z,3.40
2022-09-26T22:07:07.791Z,2.38
2022-09-26T22:09:37.942Z,2.67
2022-09-26T22:12:05.765Z,2.25
2022-09-26T22:14:33.519Z,2.30
2022-09-26T22:17:00.906Z,3.45
2022-09-26T22:19:33.231Z,5.28
2022-09-26T22:22:01.641Z,3.97
2022-09-26T22:24:29.899Z,3.45
2022-09-26T22:26:57.292Z,3.67
2022-09-26T22:29:24.659Z,2.13
2022-09-26T22:31:52.044Z,1.90
2022-09-26T22:34:20.841Z,3.47
2022-09-26T22:36:49.282Z,3.05
2022-09-26T22:39:16.745Z,3.85
2022-09-26T22:41:44.277Z,1.55
2022-09-26T22:44:11.643Z,4.85
2022-09-26T22:46:39.079Z,2.22
2022-09-26T22:49:06.538Z,2.53
2022-09-26T22:51:34.534Z,3.00
2022-09-26T22:54:01.938Z,2.90
2022-09-26T22:56:29.633Z,2.17
2022-09-26T22:59:01.546Z,3.58
2022-09-26T23:01:29.112Z,2.92
2022-09-26T23:04:00.403Z,3.25
2022-09-26T23:06:28.140Z,3.20
2022-09-26T23:08:55.918Z,2.22
2022-09-26T23:11:24.311Z,2.65
2022-09-26T23:13:52.682Z,2.78
2022-09-26T23:16:22.474Z,2.13
2022-09-26T23:18:51.639Z,2.50
2022-09-26T23:21:21.851Z,2.83
2022-09-26T23:23:51.566Z,2.15
2022-09-26T23:26:24.695Z,3.45
2022-09-26T23:28:56.144Z,3.88
2022-09-26T23:31:25.159Z,3.72
2022-09-26T23:33:53.958Z,2.78
2022-09-26T23:36:21.748Z,2.55
2022-09-26T23:38:49.947Z,2.97
2022-09-26T23:41:17.979Z,2.33
2022-09-26T23:43:46.503Z,2.92
2022-09-26T23:46:14.194Z,3.08
2022-09-26T23:48:42.238Z,3.00
2022-09-26T23:51:09.698Z,2.25
2022-09-26T23:53:37.104Z,2.67
2022-09-26T23:56:04.699Z,2.42
2022-09-26T23:58:32.518Z,2.72
